sensor_id;sensor_type;location;lat;lon;timestamp;pressure;altitude;pressure_sealevel;temperature;humidity
31585;BME280;18191;51.288;12.390;2023-01-08T00:02:11;49175.94;;;-144.47;79.91
31585;BME280;18191;51.288;12.390;2023-01-08T00:07:01;49199.81;;;-144.47;80.74
31585;BME280;18191;51.288;12.390;2023-01-08T00:11:51;49203.78;;;-144.47;80.99
31585;BME280;18191;51.288;12.390;2023-01-08T00:16:41;49156.03;;;-144.47;81.11
31585;BME280;18191;51.288;12.390;2023-01-08T00:21:31;49136.16;;;-144.47;81.69
31585;BME280;18191;51.288;12.390;2023-01-08T00:26:22;49166.00;;;-144.47;81.51
31585;BME280;18191;51.288;12.390;2023-01-08T00:31:12;49179.91;;;-144.47;80.91
31585;BME280;18191;51.288;12.390;2023-01-08T00:36:06;49171.97;;;-144.47;80.20
31585;BME280;18191;51.288;12.390;2023-01-08T00:40:57;49183.91;;;-144.47;80.97
31585;BME280;18191;51.288;12.390;2023-01-08T00:45:47;49185.88;;;-144.47;80.54
31585;BME280;18191;51.288;12.390;2023-01-08T00:50:40;49148.09;;;-144.47;79.90
31585;BME280;18191;51.288;12.390;2023-01-08T00:55:30;49167.97;;;-144.47;79.53
31585;BME280;18191;51.288;12.390;2023-01-08T01:00:20;49173.94;;;-144.47;78.73
31585;BME280;18191;51.288;12.390;2023-01-08T01:05:11;49148.09;;;-144.47;77.90
31585;BME280;18191;51.288;12.390;2023-01-08T01:10:04;49175.94;;;-144.47;77.82
31585;BME280;18191;51.288;12.390;2023-01-08T01:14:54;49171.97;;;-144.47;77.39
31585;BME280;18191;51.288;12.390;2023-01-08T01:19:44;49177.94;;;-144.47;77.08
31585;BME280;18191;51.288;12.390;2023-01-08T01:24:35;49181.91;;;-144.47;77.02
31585;BME280;18191;51.288;12.390;2023-01-08T01:29:25;49144.09;;;-144.47;76.70
31585;BME280;18191;51.288;12.390;2023-01-08T01:34:15;49148.09;;;-144.47;76.31
31585;BME280;18191;51.288;12.390;2023-01-08T01:39:06;49203.78;;;-144.47;77.48
31585;BME280;18191;51.288;12.390;2023-01-08T01:43:57;49150.06;;;-144.47;77.62
31585;BME280;18191;51.288;12.390;2023-01-08T01:48:48;49191.84;;;-144.47;77.50
31585;BME280;18191;51.288;12.390;2023-01-08T01:53:40;49152.06;;;-144.47;78.26
31585;BME280;18191;51.288;12.390;2023-01-08T01:58:30;49187.88;;;-144.47;77.91
31585;BME280;18191;51.288;12.390;2023-01-08T02:03:25;49158.03;;;-144.47;77.80
31585;BME280;18191;51.288;12.390;2023-01-08T02:08:19;49164.00;;;-144.47;77.87
31585;BME280;18191;51.288;12.390;2023-01-08T02:13:16;49195.84;;;-144.47;77.90
31585;BME280;18191;51.288;12.390;2023-01-08T02:18:14;49152.06;;;-144.47;77.68
31585;BME280;18191;51.288;12.390;2023-01-08T02:23:09;49171.97;;;-144.47;77.81
31585;BME280;18191;51.288;12.390;2023-01-08T02:28:00;49213.75;;;-144.47;78.39
31585;BME280;18191;51.288;12.390;2023-01-08T02:32:51;49164.00;;;-144.47;78.60
31585;BME280;18191;51.288;12.390;2023-01-08T02:37:41;49187.88;;;-144.47;78.51
31585;BME280;18191;51.288;12.390;2023-01-08T02:47:44;49164.00;;;-144.47;77.45
31585;BME280;18191;51.288;12.390;2023-01-08T02:52:38;49183.91;;;-144.47;77.34
31585;BME280;18191;51.288;12.390;2023-01-08T02:57:29;49164.00;;;-144.47;76.03
31585;BME280;18191;51.288;12.390;2023-01-08T03:02:21;49150.06;;;-144.47;75.19
31585;BME280;18191;51.288;12.390;2023-01-08T03:07:11;49189.88;;;-144.47;74.33
31585;BME280;18191;51.288;12.390;2023-01-08T03:12:04;49144.09;;;-144.47;73.92
31585;BME280;18191;51.288;12.390;2023-01-08T03:17:08;49148.09;;;-144.47;72.78
31585;BME280;18191;51.288;12.390;2023-01-08T03:22:03;49154.06;;;-144.47;72.62
31585;BME280;18191;51.288;12.390;2023-01-08T03:26:57;49173.94;;;-144.47;72.00
31585;BME280;18191;51.288;12.390;2023-01-08T03:31:48;49148.09;;;-144.47;70.77
31585;BME280;18191;51.288;12.390;2023-01-08T03:36:41;49144.09;;;-144.47;71.23
31585;BME280;18191;51.288;12.390;2023-01-08T03:41:33;49150.06;;;-144.47;71.31
31585;BME280;18191;51.288;12.390;2023-01-08T03:46:29;49136.16;;;-144.47;70.59
31585;BME280;18191;51.288;12.390;2023-01-08T03:51:20;49171.97;;;-144.47;71.39
31585;BME280;18191;51.288;12.390;2023-01-08T03:56:10;49183.91;;;-144.47;70.50
31585;BME280;18191;51.288;12.390;2023-01-08T04:01:00;49124.22;;;-144.47;72.06
31585;BME280;18191;51.288;12.390;2023-01-08T04:05:51;49164.00;;;-144.47;72.16
31585;BME280;18191;51.288;12.390;2023-01-08T04:10:41;49136.16;;;-144.47;72.04
31585;BME280;18191;51.288;12.390;2023-01-08T04:15:31;49199.81;;;-144.47;71.86
31585;BME280;18191;51.288;12.390;2023-01-08T04:20:22;49148.09;;;-144.47;71.09
31585;BME280;18191;51.288;12.390;2023-01-08T04:25:12;49146.09;;;-144.47;70.28
31585;BME280;18191;51.288;12.390;2023-01-08T04:30:02;49124.22;;;-144.47;70.64
31585;BME280;18191;51.288;12.390;2023-01-08T04:34:53;49171.97;;;-144.47;71.33
31585;BME280;18191;51.288;12.390;2023-01-08T04:39:43;49134.16;;;-144.47;71.51
31585;BME280;18191;51.288;12.390;2023-01-08T04:44:33;49164.00;;;-144.47;71.36
31585;BME280;18191;51.288;12.390;2023-01-08T04:49:23;49140.13;;;-144.47;71.03
31585;BME280;18191;51.288;12.390;2023-01-08T04:54:13;49166.00;;;-144.47;71.39
31585;BME280;18191;51.288;12.390;2023-01-08T04:59:03;49156.03;;;-144.47;71.03
31585;BME280;18191;51.288;12.390;2023-01-08T05:03:54;49179.91;;;-144.47;70.45
31585;BME280;18191;51.288;12.390;2023-01-08T05:08:45;49136.16;;;-144.47;70.51
31585;BME280;18191;51.288;12.390;2023-01-08T05:13:35;49160.03;;;-144.47;71.19
31585;BME280;18191;51.288;12.390;2023-01-08T05:18:26;49164.00;;;-144.47;71.62
31585;BME280;18191;51.288;12.390;2023-01-08T05:23:16;49171.97;;;-144.47;70.67
31585;BME280;18191;51.288;12.390;2023-01-08T05:28:06;49148.09;;;-144.47;71.20
31585;BME280;18191;51.288;12.390;2023-01-08T05:32:56;49167.97;;;-144.47;72.00
31585;BME280;18191;51.288;12.390;2023-01-08T05:37:47;49162.00;;;-144.47;72.48
31585;BME280;18191;51.288;12.390;2023-01-08T05:42:37;49144.09;;;-144.47;72.58
31585;BME280;18191;51.288;12.390;2023-01-08T05:47:30;49132.16;;;-144.47;72.22
31585;BME280;18191;51.288;12.390;2023-01-08T05:52:20;49160.03;;;-144.47;72.25
31585;BME280;18191;51.288;12.390;2023-01-08T05:57:10;49167.97;;;-144.47;71.80
31585;BME280;18191;51.288;12.390;2023-01-08T06:02:00;49144.09;;;-144.47;72.45
31585;BME280;18191;51.288;12.390;2023-01-08T06:06:51;49152.06;;;-144.47;73.03
31585;BME280;18191;51.288;12.390;2023-01-08T06:11:41;49209.75;;;-144.47;72.83
31585;BME280;18191;51.288;12.390;2023-01-08T06:16:31;49203.78;;;-144.47;73.61
31585;BME280;18191;51.288;12.390;2023-01-08T06:21:21;49132.16;;;-144.47;73.92
31585;BME280;18191;51.288;12.390;2023-01-08T06:26:11;49164.00;;;-144.47;73.35
31585;BME280;18191;51.288;12.390;2023-01-08T06:31:02;49169.97;;;-144.47;73.49
31585;BME280;18191;51.288;12.390;2023-01-08T06:35:52;49128.19;;;-144.47;74.06
31585;BME280;18191;51.288;12.390;2023-01-08T06:40:42;49191.84;;;-144.47;73.95
31585;BME280;18191;51.288;12.390;2023-01-08T06:45:33;49166.00;;;-144.47;73.69
31585;BME280;18191;51.288;12.390;2023-01-08T06:50:23;49164.00;;;-144.47;72.83
31585;BME280;18191;51.288;12.390;2023-01-08T06:55:14;49164.00;;;-144.47;73.12
31585;BME280;18191;51.288;12.390;2023-01-08T07:00:04;49160.03;;;-144.47;73.31
31585;BME280;18191;51.288;12.390;2023-01-08T07:04:54;49158.03;;;-144.47;73.12
31585;BME280;18191;51.288;12.390;2023-01-08T07:09:47;49152.06;;;-144.47;73.22
31585;BME280;18191;51.288;12.390;2023-01-08T07:14:38;49108.31;;;-144.47;73.38
31585;BME280;18191;51.288;12.390;2023-01-08T07:19:28;49164.00;;;-144.47;73.03
31585;BME280;18191;51.288;12.390;2023-01-08T07:24:20;49152.06;;;-144.47;73.65
31585;BME280;18191;51.288;12.390;2023-01-08T07:29:10;49183.91;;;-144.47;72.65
31585;BME280;18191;51.288;12.390;2023-01-08T07:34:00;49164.00;;;-144.47;72.95
31585;BME280;18191;51.288;12.390;2023-01-08T07:38:50;49138.16;;;-144.47;72.76
31585;BME280;18191;51.288;12.390;2023-01-08T07:43:40;49162.00;;;-144.47;73.49
31585;BME280;18191;51.288;12.390;2023-01-08T07:48:31;49169.97;;;-144.47;73.69
31585;BME280;18191;51.288;12.390;2023-01-08T07:53:21;49148.09;;;-144.47;73.49
31585;BME280;18191;51.288;12.390;2023-01-08T07:58:12;49136.16;;;-144.47;73.80
31585;BME280;18191;51.288;12.390;2023-01-08T08:03:03;49187.88;;;-144.47;73.01
31585;BME280;18191;51.288;12.390;2023-01-08T08:07:53;49164.00;;;-144.47;72.72
31585;BME280;18191;51.288;12.390;2023-01-08T08:12:44;49126.22;;;-144.47;72.95
31585;BME280;18191;51.288;12.390;2023-01-08T08:17:34;49128.19;;;-144.47;72.91
31585;BME280;18191;51.288;12.390;2023-01-08T08:22:24;49144.09;;;-144.47;72.77
31585;BME280;18191;51.288;12.390;2023-01-08T08:27:14;49156.03;;;-144.47;73.01
31585;BME280;18191;51.288;12.390;2023-01-08T08:32:05;49136.16;;;-144.47;72.78
31585;BME280;18191;51.288;12.390;2023-01-08T08:36:55;49156.03;;;-144.47;72.93
31585;BME280;18191;51.288;12.390;2023-01-08T08:41:45;49152.06;;;-144.47;73.27
31585;BME280;18191;51.288;12.390;2023-01-08T08:46:35;49160.03;;;-144.47;73.21
31585;BME280;18191;51.288;12.390;2023-01-08T08:51:25;49187.88;;;-144.47;73.21
31585;BME280;18191;51.288;12.390;2023-01-08T08:56:15;49162.00;;;-144.47;73.29
31585;BME280;18191;51.288;12.390;2023-01-08T09:01:06;49160.03;;;-144.47;72.50
31585;BME280;18191;51.288;12.390;2023-01-08T09:06:00;49167.97;;;-144.47;72.98
31585;BME280;18191;51.288;12.390;2023-01-08T09:10:50;49167.97;;;-144.47;73.20
31585;BME280;18191;51.288;12.390;2023-01-08T09:15:40;49124.22;;;-144.47;73.06
31585;BME280;18191;51.288;12.390;2023-01-08T09:20:31;49162.00;;;-144.47;73.38
31585;BME280;18191;51.288;12.390;2023-01-08T09:25:21;49179.91;;;-144.47;74.17
31585;BME280;18191;51.288;12.390;2023-01-08T09:30:11;49179.91;;;-144.47;75.01
31585;BME280;18191;51.288;12.390;2023-01-08T09:35:02;49175.94;;;-144.47;75.53
31585;BME280;18191;51.288;12.390;2023-01-08T09:39:52;49175.94;;;-144.47;75.49
31585;BME280;18191;51.288;12.390;2023-01-08T09:44:42;49140.13;;;-144.47;75.00
31585;BME280;18191;51.288;12.390;2023-01-08T09:49:37;49162.00;;;-144.47;75.57
31585;BME280;18191;51.288;12.390;2023-01-08T09:54:28;49185.88;;;-144.47;75.33
31585;BME280;18191;51.288;12.390;2023-01-08T09:59:20;49136.16;;;-144.47;74.43
31585;BME280;18191;51.288;12.390;2023-01-08T10:04:13;49167.97;;;-144.47;73.33
31585;BME280;18191;51.288;12.390;2023-01-08T10:09:03;49148.09;;;-144.47;71.87
31585;BME280;18191;51.288;12.390;2023-01-08T10:13:54;49167.97;;;-144.47;71.25
31585;BME280;18191;51.288;12.390;2023-01-08T10:18:45;49169.97;;;-144.47;70.87
31585;BME280;18191;51.288;12.390;2023-01-08T10:23:36;49112.28;;;-144.47;71.00
31585;BME280;18191;51.288;12.390;2023-01-08T10:28:27;49187.88;;;-144.47;70.99
31585;BME280;18191;51.288;12.390;2023-01-08T10:33:24;49148.09;;;-144.47;70.00
31585;BME280;18191;51.288;12.390;2023-01-08T10:38:25;49195.84;;;-144.47;69.87
31585;BME280;18191;51.288;12.390;2023-01-08T10:43:20;49171.97;;;-144.47;69.99
31585;BME280;18191;51.288;12.390;2023-01-08T10:48:14;49154.06;;;-144.47;69.56
31585;BME280;18191;51.288;12.390;2023-01-08T10:53:20;49136.16;;;-144.47;69.24
31585;BME280;18191;51.288;12.390;2023-01-08T10:58:13;49179.91;;;-144.47;69.10
31585;BME280;18191;51.288;12.390;2023-01-08T11:03:07;49134.16;;;-144.47;67.92
31585;BME280;18191;51.288;12.390;2023-01-08T11:07:58;49156.03;;;-144.47;68.49
31585;BME280;18191;51.288;12.390;2023-01-08T11:12:53;49156.03;;;-144.47;68.80
31585;BME280;18191;51.288;12.390;2023-01-08T11:17:43;49154.06;;;-144.47;68.27
31585;BME280;18191;51.288;12.390;2023-01-08T11:22:33;49156.03;;;-144.47;68.96
31585;BME280;18191;51.288;12.390;2023-01-08T11:27:25;49120.25;;;-144.47;69.09
31585;BME280;18191;51.288;12.390;2023-01-08T11:37:18;49156.03;;;-144.47;67.51
31585;BME280;18191;51.288;12.390;2023-01-08T11:42:19;49142.13;;;-144.47;67.77
31585;BME280;18191;51.288;12.390;2023-01-08T11:52:15;49098.34;;;-144.47;67.40
31585;BME280;18191;51.288;12.390;2023-01-08T12:02:32;49175.94;;;-144.47;67.06
31585;BME280;18191;51.288;12.390;2023-01-08T12:07:35;49158.03;;;-144.47;66.82
31585;BME280;18191;51.288;12.390;2023-01-08T12:12:40;49120.25;;;-144.47;66.98
31585;BME280;18191;51.288;12.390;2023-01-08T12:17:44;49136.16;;;-144.47;66.79
31585;BME280;18191;51.288;12.390;2023-01-08T12:22:45;49122.22;;;-144.47;66.54
31585;BME280;18191;51.288;12.390;2023-01-08T12:33:00;49152.06;;;-144.47;67.26
31585;BME280;18191;51.288;12.390;2023-01-08T12:37:54;49136.16;;;-144.47;66.75
31585;BME280;18191;51.288;12.390;2023-01-08T12:42:46;49128.19;;;-144.47;66.40
31585;BME280;18191;51.288;12.390;2023-01-08T12:47:37;49160.03;;;-144.47;66.44
31585;BME280;18191;51.288;12.390;2023-01-08T12:52:43;49128.19;;;-144.47;66.05
31585;BME280;18191;51.288;12.390;2023-01-08T12:57:37;49152.06;;;-144.47;66.39
31585;BME280;18191;51.288;12.390;2023-01-08T13:07:35;49128.19;;;-144.47;67.85
31585;BME280;18191;51.288;12.390;2023-01-08T13:12:32;49126.22;;;-144.47;67.86
31585;BME280;18191;51.288;12.390;2023-01-08T13:17:23;49092.38;;;-144.47;68.92
31585;BME280;18191;51.288;12.390;2023-01-08T13:22:27;49134.16;;;-144.47;69.11
31585;BME280;18191;51.288;12.390;2023-01-08T13:37:23;49171.97;;;-144.47;68.47
31585;BME280;18191;51.288;12.390;2023-01-08T13:42:21;49173.94;;;-144.47;70.04
31585;BME280;18191;51.288;12.390;2023-01-08T13:47:31;49160.03;;;-144.47;71.21
31585;BME280;18191;51.288;12.390;2023-01-08T13:52:30;49112.28;;;-144.47;71.27
31585;BME280;18191;51.288;12.390;2023-01-08T13:57:20;49144.09;;;-144.47;70.83
31585;BME280;18191;51.288;12.390;2023-01-08T14:02:20;49104.31;;;-144.47;70.83
31585;BME280;18191;51.288;12.390;2023-01-08T14:07:13;49128.19;;;-144.47;70.59
31585;BME280;18191;51.288;12.390;2023-01-08T14:12:03;49183.91;;;-144.47;70.64
31585;BME280;18191;51.288;12.390;2023-01-08T14:16:54;49156.03;;;-144.47;70.34
31585;BME280;18191;51.288;12.390;2023-01-08T14:21:47;49160.03;;;-144.47;70.26
31585;BME280;18191;51.288;12.390;2023-01-08T14:26:38;49171.97;;;-144.47;70.30
31585;BME280;18191;51.288;12.390;2023-01-08T14:31:28;49124.22;;;-144.47;71.06
31585;BME280;18191;51.288;12.390;2023-01-08T14:36:19;49148.09;;;-144.47;70.44
31585;BME280;18191;51.288;12.390;2023-01-08T14:41:10;49132.16;;;-144.47;70.29
31585;BME280;18191;51.288;12.390;2023-01-08T14:46:01;49179.91;;;-144.47;69.53
31585;BME280;18191;51.288;12.390;2023-01-08T14:50:55;49136.16;;;-144.47;70.20
31585;BME280;18191;51.288;12.390;2023-01-08T14:55:48;49167.97;;;-144.47;70.63
31585;BME280;18191;51.288;12.390;2023-01-08T15:00:39;49156.03;;;-144.47;71.02
31585;BME280;18191;51.288;12.390;2023-01-08T15:05:30;49156.03;;;-144.47;71.45
31585;BME280;18191;51.288;12.390;2023-01-08T15:10:34;49140.13;;;-144.47;71.27
31585;BME280;18191;51.288;12.390;2023-01-08T15:15:25;49146.09;;;-144.47;71.93
31585;BME280;18191;51.288;12.390;2023-01-08T15:20:16;49148.09;;;-144.47;72.56
31585;BME280;18191;51.288;12.390;2023-01-08T15:25:13;49160.03;;;-144.47;73.02
31585;BME280;18191;51.288;12.390;2023-01-08T15:30:04;49167.97;;;-144.47;72.81
31585;BME280;18191;51.288;12.390;2023-01-08T15:34:58;49179.91;;;-144.47;73.63
31585;BME280;18191;51.288;12.390;2023-01-08T15:39:48;49136.16;;;-144.47;74.69
31585;BME280;18191;51.288;12.390;2023-01-08T15:44:38;49128.19;;;-144.47;75.40
31585;BME280;18191;51.288;12.390;2023-01-08T15:49:28;49162.00;;;-144.47;75.99
31585;BME280;18191;51.288;12.390;2023-01-08T15:54:19;49150.06;;;-144.47;75.06
31585;BME280;18191;51.288;12.390;2023-01-08T15:59:11;49162.00;;;-144.47;75.51
31585;BME280;18191;51.288;12.390;2023-01-08T16:04:01;49122.22;;;-144.47;75.69
31585;BME280;18191;51.288;12.390;2023-01-08T16:08:51;49152.06;;;-144.47;76.43
31585;BME280;18191;51.288;12.390;2023-01-08T16:13:41;49162.00;;;-144.47;77.37
31585;BME280;18191;51.288;12.390;2023-01-08T16:18:32;49148.09;;;-144.47;78.37
31585;BME280;18191;51.288;12.390;2023-01-08T16:23:22;49167.97;;;-144.47;78.93
31585;BME280;18191;51.288;12.390;2023-01-08T16:28:12;49179.91;;;-144.47;78.98
31585;BME280;18191;51.288;12.390;2023-01-08T16:33:02;49142.13;;;-144.47;80.02
31585;BME280;18191;51.288;12.390;2023-01-08T16:37:52;49158.03;;;-144.47;79.83
31585;BME280;18191;51.288;12.390;2023-01-08T16:42:43;49167.97;;;-144.47;80.72
31585;BME280;18191;51.288;12.390;2023-01-08T16:47:35;49167.97;;;-144.47;81.47
31585;BME280;18191;51.288;12.390;2023-01-08T16:52:25;49169.97;;;-144.47;81.28
31585;BME280;18191;51.288;12.390;2023-01-08T16:57:15;49187.88;;;-144.47;81.61
31585;BME280;18191;51.288;12.390;2023-01-08T17:02:07;49189.88;;;-144.47;81.77
31585;BME280;18191;51.288;12.390;2023-01-08T17:06:57;49150.06;;;-144.47;82.00
31585;BME280;18191;51.288;12.390;2023-01-08T17:11:48;49160.03;;;-144.47;81.48
31585;BME280;18191;51.288;12.390;2023-01-08T17:16:38;49171.97;;;-144.47;82.36
31585;BME280;18191;51.288;12.390;2023-01-08T17:21:31;49118.25;;;-144.47;82.71
31585;BME280;18191;51.288;12.390;2023-01-08T17:26:22;49150.06;;;-144.47;82.60
31585;BME280;18191;51.288;12.390;2023-01-08T17:31:16;49203.78;;;-144.47;83.21
31585;BME280;18191;51.288;12.390;2023-01-08T17:36:11;49175.94;;;-144.47;82.02
31585;BME280;18191;51.288;12.390;2023-01-08T17:41:01;49183.91;;;-144.47;82.05
31585;BME280;18191;51.288;12.390;2023-01-08T17:45:55;49132.16;;;-144.47;82.25
31585;BME280;18191;51.288;12.390;2023-01-08T17:50:45;49193.84;;;-144.47;82.87
31585;BME280;18191;51.288;12.390;2023-01-08T17:55:35;49175.94;;;-144.47;82.93
31585;BME280;18191;51.288;12.390;2023-01-08T18:00:26;49179.91;;;-144.47;83.01
31585;BME280;18191;51.288;12.390;2023-01-08T18:05:16;49140.13;;;-144.47;82.97
31585;BME280;18191;51.288;12.390;2023-01-08T18:10:06;49136.16;;;-144.47;82.80
31585;BME280;18191;51.288;12.390;2023-01-08T18:14:58;49162.00;;;-144.47;82.97
31585;BME280;18191;51.288;12.390;2023-01-08T18:19:49;49166.00;;;-144.47;83.33
31585;BME280;18191;51.288;12.390;2023-01-08T18:24:39;49167.97;;;-144.47;83.47
31585;BME280;18191;51.288;12.390;2023-01-08T18:29:29;49144.09;;;-144.47;83.69
31585;BME280;18191;51.288;12.390;2023-01-08T18:34:19;49175.94;;;-144.47;82.89
31585;BME280;18191;51.288;12.390;2023-01-08T18:39:10;49156.03;;;-144.47;83.53
31585;BME280;18191;51.288;12.390;2023-01-08T18:44:01;49164.00;;;-144.47;83.18
31585;BME280;18191;51.288;12.390;2023-01-08T18:48:52;49152.06;;;-144.47;82.71
31585;BME280;18191;51.288;12.390;2023-01-08T18:53:52;49219.72;;;-144.47;82.32
31585;BME280;18191;51.288;12.390;2023-01-08T18:58:42;49167.97;;;-144.47;82.63
31585;BME280;18191;51.288;12.390;2023-01-08T19:03:32;49171.97;;;-144.47;83.63
31585;BME280;18191;51.288;12.390;2023-01-08T19:08:23;49203.78;;;-144.47;82.98
31585;BME280;18191;51.288;12.390;2023-01-08T19:13:14;49152.06;;;-144.47;82.89
31585;BME280;18191;51.288;12.390;2023-01-08T19:18:05;49150.06;;;-144.47;83.46
31585;BME280;18191;51.288;12.390;2023-01-08T19:22:57;49171.97;;;-144.47;84.28
31585;BME280;18191;51.288;12.390;2023-01-08T19:27:47;49175.94;;;-144.47;84.81
31585;BME280;18191;51.288;12.390;2023-01-08T19:32:38;49171.97;;;-144.47;84.88
31585;BME280;18191;51.288;12.390;2023-01-08T19:37:28;49211.75;;;-144.47;85.02
31585;BME280;18191;51.288;12.390;2023-01-08T19:42:21;49162.00;;;-144.47;85.03
31585;BME280;18191;51.288;12.390;2023-01-08T19:47:30;49162.00;;;-144.47;84.66
31585;BME280;18191;51.288;12.390;2023-01-08T19:52:22;49199.81;;;-144.47;84.19
31585;BME280;18191;51.288;12.390;2023-01-08T19:57:12;49185.88;;;-144.47;84.55
31585;BME280;18191;51.288;12.390;2023-01-08T20:02:02;49173.94;;;-144.47;84.89
31585;BME280;18191;51.288;12.390;2023-01-08T20:06:53;49171.97;;;-144.47;84.83
31585;BME280;18191;51.288;12.390;2023-01-08T20:11:47;49189.88;;;-144.47;86.09
31585;BME280;18191;51.288;12.390;2023-01-08T20:16:38;49164.00;;;-144.47;85.65
31585;BME280;18191;51.288;12.390;2023-01-08T20:21:29;49160.03;;;-144.47;86.25
31585;BME280;18191;51.288;12.390;2023-01-08T20:26:19;49179.91;;;-144.47;86.68
31585;BME280;18191;51.288;12.390;2023-01-08T20:31:14;49144.09;;;-144.47;86.30
31585;BME280;18191;51.288;12.390;2023-01-08T20:36:08;49199.81;;;-144.47;86.03
31585;BME280;18191;51.288;12.390;2023-01-08T20:40:59;49187.88;;;-144.47;86.95
31585;BME280;18191;51.288;12.390;2023-01-08T20:45:51;49175.94;;;-144.47;87.54
31585;BME280;18191;51.288;12.390;2023-01-08T20:50:44;49227.66;;;-144.47;88.03
31585;BME280;18191;51.288;12.390;2023-01-08T20:55:35;49183.91;;;-144.47;87.69
31585;BME280;18191;51.288;12.390;2023-01-08T21:00:26;49158.03;;;-144.47;87.65
31585;BME280;18191;51.288;12.390;2023-01-08T21:05:16;49167.97;;;-144.47;87.77
31585;BME280;18191;51.288;12.390;2023-01-08T21:10:06;49197.81;;;-144.47;89.04
31585;BME280;18191;51.288;12.390;2023-01-08T21:14:57;49167.97;;;-144.47;88.98
31585;BME280;18191;51.288;12.390;2023-01-08T21:19:47;49197.81;;;-144.47;88.37
31585;BME280;18191;51.288;12.390;2023-01-08T21:24:37;49169.97;;;-144.47;88.56
31585;BME280;18191;51.288;12.390;2023-01-08T21:29:27;49179.91;;;-144.47;87.85
31585;BME280;18191;51.288;12.390;2023-01-08T21:34:18;49207.78;;;-144.47;88.27
31585;BME280;18191;51.288;12.390;2023-01-08T21:39:09;49175.94;;;-144.47;87.90
31585;BME280;18191;51.288;12.390;2023-01-08T21:44:00;49183.91;;;-144.47;88.41
31585;BME280;18191;51.288;12.390;2023-01-08T21:49:12;49179.91;;;-144.47;88.75
31585;BME280;18191;51.288;12.390;2023-01-08T21:54:03;49164.00;;;-144.47;89.39
31585;BME280;18191;51.288;12.390;2023-01-08T21:58:53;49191.84;;;-144.47;89.65
31585;BME280;18191;51.288;12.390;2023-01-08T22:03:44;49154.06;;;-144.47;89.86
31585;BME280;18191;51.288;12.390;2023-01-08T22:08:34;49164.00;;;-144.47;89.82
31585;BME280;18191;51.288;12.390;2023-01-08T22:13:24;49164.00;;;-144.47;89.74
31585;BME280;18191;51.288;12.390;2023-01-08T22:18:15;49187.88;;;-144.47;90.73
31585;BME280;18191;51.288;12.390;2023-01-08T22:23:05;49167.97;;;-144.47;90.53
31585;BME280;18191;51.288;12.390;2023-01-08T22:27:55;49156.03;;;-144.47;90.20
31585;BME280;18191;51.288;12.390;2023-01-08T22:32:46;49124.22;;;-144.47;89.71
31585;BME280;18191;51.288;12.390;2023-01-08T22:37:36;49181.91;;;-144.47;88.70
31585;BME280;18191;51.288;12.390;2023-01-08T22:42:26;49181.91;;;-144.47;88.49
31585;BME280;18191;51.288;12.390;2023-01-08T22:47:16;49195.84;;;-144.47;89.18
31585;BME280;18191;51.288;12.390;2023-01-08T22:52:06;49195.84;;;-144.47;89.37
31585;BME280;18191;51.288;12.390;2023-01-08T22:56:58;49156.03;;;-144.47;89.53
31585;BME280;18191;51.288;12.390;2023-01-08T23:01:48;49169.97;;;-144.47;89.48
31585;BME280;18191;51.288;12.390;2023-01-08T23:06:38;49152.06;;;-144.47;89.42
31585;BME280;18191;51.288;12.390;2023-01-08T23:11:29;49167.97;;;-144.47;88.75
31585;BME280;18191;51.288;12.390;2023-01-08T23:16:20;49189.88;;;-144.47;89.12
31585;BME280;18191;51.288;12.390;2023-01-08T23:21:12;49140.13;;;-144.47;88.67
31585;BME280;18191;51.288;12.390;2023-01-08T23:26:04;49209.75;;;-144.47;88.29
31585;BME280;18191;51.288;12.390;2023-01-08T23:30:54;49177.94;;;-144.47;87.57
31585;BME280;18191;51.288;12.390;2023-01-08T23:35:44;49164.00;;;-144.47;88.01
31585;BME280;18191;51.288;12.390;2023-01-08T23:40:35;49177.94;;;-144.47;88.58
31585;BME280;18191;51.288;12.390;2023-01-08T23:45:25;49191.84;;;-144.47;88.77
31585;BME280;18191;51.288;12.390;2023-01-08T23:50:15;49152.06;;;-144.47;89.10
31585;BME280;18191;51.288;12.390;2023-01-08T23:55:05;49164.00;;;-144.47;88.55
31585;BME280;18191;51.288;12.390;2023-01-08T23:59:56;49197.81;;;-144.47;88.69
